tititudorancea.com
Station Historical Data
Daily Summary for March 14, 2019 Units:  English    Metric   Both
« Previous Day
Next Day »
Daily Weekly Monthly Yearly Custom
  High: Low: Average:
Temperature: TemperatureF °F 43.7 °F 56.2 °F
Dew Point: DewpointF °F 39.7 °F 42.8 °F
Humidity: Humidity % 30 % 64 %
Wind Speed: WindSpeedMPH mph 0.0 mph 5.6 mph
Wind Gust: WindSpeedGustMPH mph - -
Wind:- - South
Pressure: PressureIn in 29.91 in -
Precipitation: 0.00 in    
Historical Graphs
 
 
Ararat weather Find more about Weather in Ararat, AU


 



 


Tabular Data for March 14, 2019
Time Temperature Dew Point Pressure Wind Wind Speed Wind Gust Humidity Rainfall Rate (Hourly)
TemperatureF °F DewpointF °F PressureIn in Calm     Humidity % HourlyPrecipIn in
00:00 54.1 °F 40.9 °F 30.05 in SSE 3.0 mph 5.0 mph 61 % 0.00 in
00:04 52.7 °F 42.8 °F 30.05 in SSE 5.0 mph 3.5 mph 69 % 0.00 in
00:05 54.0 °F 41.3 °F 30.06 in SSE 3.0 mph 6.0 mph 62 % 0.00 in
00:09 52.7 °F 42.8 °F 30.05 in SSE 3.5 mph 1.8 mph 69 % 0.00 in
00:10 54.0 °F 41.7 °F 30.06 in SSE 3.0 mph 6.0 mph 63 % 0.00 in
00:14 52.6 °F 42.7 °F 30.05 in SSE 3.5 mph 0.7 mph 69 % 0.00 in
00:15 54.0 °F 42.1 °F 30.06 in SSE 5.0 mph 7.0 mph 64 % 0.00 in
00:19 52.5 °F 42.6 °F 30.05 in SSE 5.0 mph 1.5 mph 69 % 0.00 in
00:20 54.1 °F 42.2 °F 30.06 in SSE 3.0 mph 8.0 mph 64 % 0.00 in
00:24 52.5 °F 42.6 °F 30.05 in SSE 6.9 mph 5.0 mph 69 % 0.00 in
00:25 54.1 °F 42.6 °F 30.06 in SSE 3.0 mph 7.0 mph 65 % 0.00 in
00:29 52.5 °F 43.0 °F 30.05 in SSE 4.0 mph 3.4 mph 70 % 0.00 in
00:30 54.1 °F 42.6 °F 30.06 in SSE 3.0 mph 7.0 mph 65 % 0.00 in
00:34 52.5 °F 43.0 °F 30.05 in SSE 5.8 mph 5.5 mph 70 % 0.00 in
00:35 54.1 °F 42.6 °F 30.06 in SSE 3.0 mph 7.0 mph 65 % 0.00 in
00:39 52.3 °F 42.8 °F 30.05 in SSE 6.9 mph 4.2 mph 70 % 0.00 in
00:40 54.1 °F 42.6 °F 30.06 in SSE 3.0 mph 7.0 mph 65 % 0.00 in
00:44 52.1 °F 42.6 °F 30.05 in SSE 5.8 mph 4.4 mph 70 % 0.00 in
00:45 54.1 °F 42.6 °F 30.05 in SSE 3.0 mph 7.0 mph 65 % 0.00 in
00:49 52.0 °F 42.9 °F 30.05 in SSE 5.8 mph 4.9 mph 71 % 0.00 in
00:50 54.0 °F 42.9 °F 30.05 in SSE 2.0 mph 5.0 mph 66 % 0.00 in
00:54 51.9 °F 42.8 °F 30.05 in SSE 6.9 mph 3.8 mph 71 % 0.00 in
00:55 53.9 °F 42.8 °F 30.05 in SSE 3.0 mph 8.0 mph 66 % 0.00 in
00:59 51.8 °F 42.7 °F 30.05 in SSE 5.8 mph 4.6 mph 71 % 0.00 in
01:00 53.8 °F 42.7 °F 30.04 in SSE 3.0 mph 7.0 mph 66 % 0.00 in
01:04 51.7 °F 42.6 °F 30.04 in SSE 6.0 mph 4.3 mph 71 % 0.00 in
01:05 53.6 °F 42.9 °F 30.04 in SSE 5.0 mph 9.0 mph 67 % 0.00 in
01:09 51.7 °F 43.0 °F 30.05 in SSE 8.1 mph 3.6 mph 72 % 0.00 in
01:10 53.5 °F 42.8 °F 30.04 in SSE 3.0 mph 8.0 mph 67 % 0.00 in
01:14 51.6 °F 42.9 °F 30.04 in SSE 3.5 mph 1.5 mph 72 % 0.00 in
01:15 53.4 °F 42.7 °F 30.04 in SSE 5.0 mph 9.0 mph 67 % 0.00 in
01:19 51.6 °F 42.9 °F 30.04 in SSE 3.5 mph 0.4 mph 72 % 0.00 in
01:20 53.2 °F 42.9 °F 30.04 in SSE 3.0 mph 9.0 mph 68 % 0.00 in
01:24 51.5 °F 42.8 °F 30.04 in SSE 4.6 mph 2.0 mph 72 % 0.00 in
01:25 53.0 °F 42.7 °F 30.04 in SSE 6.0 mph 7.0 mph 68 % 0.00 in
01:29 51.4 °F 42.7 °F 30.04 in SSE 1.2 mph 0.6 mph 72 % 0.00 in
01:30 52.9 °F 42.6 °F 30.04 in SSE 3.0 mph 7.0 mph 68 % 0.00 in
01:34 51.3 °F 42.6 °F 30.04 in SSE 4.0 mph 1.3 mph 72 % 0.00 in
01:35 52.9 °F 43.0 °F 30.04 in SSE 3.0 mph 6.0 mph 69 % 0.00 in
01:39 51.2 °F 42.8 °F 30.04 in SSE 4.6 mph 2.1 mph 73 % 0.00 in
01:40 52.8 °F 42.9 °F 30.04 in SSE 2.0 mph 5.0 mph 69 % 0.00 in
01:44 51.1 °F 42.7 °F 30.04 in SSE 5.8 mph 4.1 mph 73 % 0.00 in
01:45 52.8 °F 42.9 °F 30.05 in SSE 3.0 mph 6.0 mph 69 % 0.00 in
01:49 51.0 °F 42.6 °F 30.04 in SSE 3.5 mph 2.7 mph 73 % 0.00 in
01:50 52.8 °F 42.9 °F 30.05 in SSE 3.0 mph 5.0 mph 69 % 0.00 in
01:54 51.0 °F 43.0 °F 30.04 in SSE 5.0 mph 3.8 mph 74 % 0.00 in
01:55 52.8 °F 42.9 °F 30.05 in SSE 3.0 mph 6.0 mph 69 % 0.00 in
01:59 50.9 °F 42.9 °F 30.04 in SSE 3.5 mph 2.9 mph 74 % 0.00 in
02:00 52.8 °F 42.9 °F 30.05 in SSE 6.0 mph 8.0 mph 69 % 0.00 in
02:04 50.9 °F 42.9 °F 30.04 in SSE 5.8 mph 5.0 mph 74 % 0.00 in
02:05 52.8 °F 42.9 °F 30.05 in SSE 5.0 mph 7.0 mph 69 % 0.00 in
02:09 50.9 °F 42.9 °F 30.04 in SSE 6.0 mph 4.4 mph 74 % 0.00 in
02:10 52.7 °F 42.8 °F 30.05 in SSE 1.0 mph 7.0 mph 69 % 0.00 in
02:14 51.0 °F 43.0 °F 30.04 in SSE 8.1 mph 2.6 mph 74 % 0.00 in
02:15 52.7 °F 42.8 °F 30.05 in SSE 3.0 mph 7.0 mph 69 % 0.00 in
02:19 51.0 °F 43.0 °F 30.04 in SSE 4.6 mph 2.0 mph 74 % 0.00 in
02:20 52.6 °F 42.7 °F 30.05 in SSE 5.0 mph 6.0 mph 69 % 0.00 in
02:24 51.0 °F 43.0 °F 30.04 in SSE 4.0 mph 3.6 mph 74 % 0.00 in
02:25 52.5 °F 42.6 °F 30.05 in SSE 1.0 mph 5.0 mph 69 % 0.00 in
02:29 51.1 °F 43.1 °F 30.03 in SSE 4.0 mph 2.7 mph 74 % 0.00 in
02:30 52.5 °F 42.6 °F 30.05 in SSE 5.0 mph 7.0 mph 69 % 0.00 in
02:34 51.1 °F 43.1 °F 30.03 in SSE 5.8 mph 2.3 mph 74 % 0.00 in
02:35 52.5 °F 43.0 °F 30.05 in SSE 2.0 mph 6.0 mph 70 % 0.00 in
02:39 51.1 °F 43.1 °F 30.03 in SSE 3.5 mph 2.4 mph 74 % 0.00 in
02:40 52.4 °F 42.9 °F 30.05 in SSE 5.0 mph 7.0 mph 70 % 0.00 in
02:44 51.1 °F 43.1 °F 30.03 in SSE 2.3 mph 1.3 mph 74 % 0.00 in
02:45 52.2 °F 42.7 °F 30.05 in SSE 5.0 mph 7.0 mph 70 % 0.00 in
02:49 51.1 °F 43.4 °F 30.03 in SSE 5.8 mph 3.4 mph 75 % 0.00 in
02:50 52.1 °F 42.6 °F 30.05 in SSE 3.0 mph 7.0 mph 70 % 0.00 in
02:54 51.1 °F 43.4 °F 30.03 in SSE 4.6 mph 3.8 mph 75 % 0.00 in
02:55 52.0 °F 42.9 °F 30.05 in SSE 5.0 mph 7.0 mph 71 % 0.00 in
02:59 51.1 °F 43.1 °F 30.02 in SSE 5.0 mph 4.2 mph 74 % 0.00 in
03:00 51.9 °F 42.8 °F 30.05 in SSE 3.0 mph 8.0 mph 71 % 0.00 in
03:04 51.1 °F 43.1 °F 30.02 in SSE 5.0 mph 3.7 mph 74 % 0.00 in
03:05 51.8 °F 42.7 °F 30.05 in SSE 3.0 mph 7.0 mph 71 % 0.00 in
03:09 51.0 °F 43.4 °F 30.02 in SSE 3.5 mph 2.7 mph 75 % 0.00 in
03:10 51.7 °F 42.6 °F 30.04 in SSE 6.0 mph 8.0 mph 71 % 0.00 in
03:14 50.9 °F 43.3 °F 30.02 in SSE 4.6 mph 3.5 mph 75 % 0.00 in
03:15 51.7 °F 43.0 °F 30.04 in SSE 5.0 mph 8.0 mph 72 % 0.00 in
03:19 50.9 °F 43.3 °F 30.02 in SSE 4.6 mph 3.5 mph 75 % 0.00 in
03:20 51.6 °F 42.9 °F 30.04 in SSE 1.0 mph 6.0 mph 72 % 0.00 in
03:24 50.8 °F 43.2 °F 30.02 in SSE 4.0 mph 2.6 mph 75 % 0.00 in
03:25 51.6 °F 42.9 °F 30.04 in SSE 1.0 mph 5.0 mph 72 % 0.00 in
03:29 50.7 °F 43.1 °F 30.01 in SSE 5.0 mph 3.1 mph 75 % 0.00 in
03:30 51.4 °F 42.7 °F 30.04 in SSE 2.0 mph 5.0 mph 72 % 0.00 in
03:34 50.6 °F 43.0 °F 30.01 in SSE 6.0 mph 3.3 mph 75 % 0.00 in
03:35 51.3 °F 42.9 °F 30.04 in SSE 2.0 mph 4.0 mph 73 % 0.00 in
03:39 50.5 °F 42.9 °F 30.01 in SSE 5.8 mph 3.7 mph 75 % 0.00 in
03:40 51.3 °F 42.9 °F 30.04 in SSE 3.0 mph 5.0 mph 73 % 0.00 in
03:44 50.5 °F 42.9 °F 30.01 in SSE 4.6 mph 2.6 mph 75 % 0.00 in
03:45 51.2 °F 42.8 °F 30.04 in SSE 3.0 mph 5.0 mph 73 % 0.00 in
03:49 50.4 °F 43.1 °F 30.01 in SSE 3.5 mph 3.6 mph 76 % 0.00 in
03:50 51.1 °F 42.7 °F 30.04 in SSE 3.0 mph 7.0 mph 73 % 0.00 in
03:54 50.2 °F 42.9 °F 30.01 in SSE 4.6 mph 2.8 mph 76 % 0.00 in
03:55 51.0 °F 42.6 °F 30.04 in SSE 2.0 mph 5.0 mph 73 % 0.00 in
03:59 50.1 °F 42.8 °F 30.01 in SSE 3.5 mph 2.3 mph 76 % 0.00 in
04:00 51.0 °F 43.0 °F 30.04 in SSE 3.0 mph 5.0 mph 74 % 0.00 in
04:04 50.0 °F 42.7 °F 30.01 in SSE 2.3 mph 1.0 mph 76 % 0.00 in
04:05 50.9 °F 42.9 °F 30.04 in SSE 3.0 mph 5.0 mph 74 % 0.00 in
04:09 49.9 °F 43.0 °F 30.01 in SSE 3.5 mph 2.8 mph 77 % 0.00 in
04:10 50.9 °F 42.9 °F 30.04 in SSE 3.0 mph 7.0 mph 74 % 0.00 in
04:14 49.8 °F 42.9 °F 30.01 in SSE 4.6 mph 2.1 mph 77 % 0.00 in
04:15 50.9 °F 42.9 °F 30.04 in SSE 3.0 mph 7.0 mph 74 % 0.00 in
04:19 49.7 °F 42.8 °F 30.01 in SSE 3.5 mph 1.4 mph 77 % 0.00 in
04:20 51.0 °F 43.0 °F 30.04 in SSE 3.0 mph 8.0 mph 74 % 0.00 in
04:24 49.6 °F 42.7 °F 30.00 in SSE 3.5 mph 1.0 mph 77 % 0.00 in
04:25 51.0 °F 43.0 °F 30.03 in SSE 3.0 mph 7.0 mph 74 % 0.00 in
04:29 49.4 °F 42.8 °F 30.01 in SSE 3.5 mph 2.2 mph 78 % 0.00 in
04:30 51.0 °F 43.0 °F 30.04 in SSE 3.0 mph 5.0 mph 74 % 0.00 in
04:34 49.1 °F 42.5 °F 30.00 in SSE 2.3 mph 1.8 mph 78 % 0.00 in
04:35 51.1 °F 43.1 °F 30.03 in SSE 3.0 mph 5.0 mph 74 % 0.00 in
04:39 49.0 °F 42.8 °F 30.00 in SSE 4.6 mph 2.6 mph 79 % 0.00 in
04:40 51.1 °F 43.1 °F 30.03 in SSE 1.0 mph 6.0 mph 74 % 0.00 in
04:44 48.9 °F 42.7 °F 30.00 in SSE 4.6 mph 4.2 mph 79 % 0.00 in
04:45 51.1 °F 43.1 °F 30.03 in SSE 1.0 mph 4.0 mph 74 % 0.00 in
04:49 48.9 °F 42.7 °F 30.00 in SSE 5.0 mph 4.3 mph 79 % 0.00 in
04:50 51.1 °F 43.1 °F 30.03 in SSE 3.0 mph 6.0 mph 74 % 0.00 in
04:54 48.9 °F 42.7 °F 29.99 in South 5.8 mph 4.6 mph 79 % 0.00 in
04:55 51.1 °F 43.4 °F 30.03 in SSE 3.0 mph 6.0 mph 75 % 0.00 in
04:59 48.8 °F 42.9 °F 29.99 in SSE 4.6 mph 3.8 mph 80 % 0.00 in
05:00 51.1 °F 43.4 °F 30.03 in SSE 3.0 mph 6.0 mph 75 % 0.00 in
05:04 48.7 °F 42.8 °F 29.99 in SSE 3.5 mph 2.2 mph 80 % 0.00 in
05:05 51.1 °F 43.4 °F 30.02 in SSE 3.0 mph 6.0 mph 75 % 0.00 in
05:09 48.6 °F 42.7 °F 29.99 in North 2.3 mph 0.7 mph 80 % 0.00 in
05:10 51.1 °F 43.1 °F 30.02 in SSE 3.0 mph 6.0 mph 74 % 0.00 in
05:14 48.5 °F 42.6 °F 29.99 in SSE 2.3 mph 1.1 mph 80 % 0.00 in
05:15 51.0 °F 43.4 °F 30.02 in SSE 5.0 mph 6.0 mph 75 % 0.00 in
05:19 48.2 °F 42.3 °F 29.99 in SSE 2.3 mph 1.3 mph 80 % 0.00 in
05:20 50.9 °F 43.3 °F 30.02 in SSE 2.0 mph 6.0 mph 75 % 0.00 in
05:24 48.0 °F 42.4 °F 29.99 in SSE 3.5 mph 1.3 mph 81 % 0.00 in
05:25 50.9 °F 43.3 °F 30.02 in SSE 2.0 mph 5.0 mph 75 % 0.00 in
05:29 47.8 °F 42.3 °F 29.99 in SSE 3.5 mph 1.8 mph 81 % 0.00 in
05:30 50.8 °F 43.2 °F 30.01 in SSE 3.0 mph 5.0 mph 75 % 0.00 in
05:34 47.6 °F 42.1 °F 29.99 in SSE 1.2 mph   81 % 0.00 in
05:35 50.7 °F 43.1 °F 30.01 in SSE 3.0 mph 6.0 mph 75 % 0.00 in
05:39 47.2 °F 41.7 °F 29.99 in SSE 2.3 mph 1.0 mph 81 % 0.00 in
05:40 50.6 °F 43.0 °F 30.01 in SSE 3.0 mph 6.0 mph 75 % 0.00 in
05:44 47.0 °F 41.8 °F 29.99 in SSE 2.3 mph 1.2 mph 82 % 0.00 in
05:45 50.5 °F 42.9 °F 30.01 in SSE 3.0 mph 6.0 mph 75 % 0.00 in
05:49 46.9 °F 42.0 °F 29.99 in SSE 1.2 mph 0.7 mph 83 % 0.00 in
05:50 50.4 °F 42.8 °F 30.01 in SSE 3.0 mph 5.0 mph 75 % 0.00 in
05:54 46.7 °F 41.8 °F 29.99 in SSE 4.0 mph 1.8 mph 83 % 0.00 in
05:55 50.3 °F 43.0 °F 30.01 in SSE 1.0 mph 4.0 mph 76 % 0.00 in
05:59 46.5 °F 41.6 °F 29.98 in SSE 3.5 mph 2.6 mph 83 % 0.00 in
06:00 50.2 °F 42.9 °F 30.01 in SSE 3.0 mph 5.0 mph 76 % 0.00 in
06:04 46.1 °F 41.2 °F 29.98 in SSE 2.0 mph 1.5 mph 83 % 0.00 in
06:05 50.1 °F 42.8 °F 30.01 in SSE 2.0 mph 5.0 mph 76 % 0.00 in
06:09 45.8 °F 40.9 °F 29.99 in North 2.3 mph 1.4 mph 83 % 0.00 in
06:10 50.0 °F 42.7 °F 30.01 in Calm   4.0 mph 76 % 0.00 in
06:14 45.6 °F 41.0 °F 29.99 in SSE 2.3 mph 1.6 mph 84 % 0.00 in
06:15 49.9 °F 43.0 °F 30.01 in SSE 2.0 mph 4.0 mph 77 % 0.00 in
06:19 45.3 °F 40.7 °F 29.99 in SSE 2.0 mph 0.7 mph 84 % 0.00 in
06:20 49.8 °F 42.9 °F 30.01 in SSE 1.0 mph 5.0 mph 77 % 0.00 in
06:24 45.0 °F 40.5 °F 29.99 in Calm     84 % 0.00 in
06:25 49.7 °F 42.8 °F 30.01 in SSE 1.0 mph 4.0 mph 77 % 0.00 in
06:29 44.8 °F 40.6 °F 29.98 in North 2.3 mph 1.5 mph 85 % 0.00 in
06:30 49.6 °F 42.7 °F 30.01 in SSE 2.0 mph 4.0 mph 77 % 0.00 in
06:34 44.6 °F 40.4 °F 29.98 in Calm     85 % 0.00 in
06:35 49.3 °F 42.7 °F 30.00 in SSE 2.0 mph 4.0 mph 78 % 0.00 in
06:39 44.4 °F 40.2 °F 29.99 in SSE 2.3 mph 1.1 mph 85 % 0.00 in
06:40 49.1 °F 42.5 °F 30.00 in SSE 3.0 mph 4.0 mph 78 % 0.00 in
06:44 44.2 °F 40.3 °F 29.99 in SSE 2.3 mph 1.3 mph 86 % 0.00 in
06:45 48.9 °F 42.7 °F 30.00 in SSE 3.0 mph 5.0 mph 79 % 0.00 in
06:49 44.1 °F 40.2 °F 29.99 in North 2.3 mph 1.3 mph 86 % 0.00 in
06:50 48.9 °F 42.7 °F 30.00 in SSE 3.0 mph 5.0 mph 79 % 0.00 in
06:54 43.9 °F 40.0 °F 29.99 in SSE 2.3 mph 0.1 mph 86 % 0.00 in
06:55 48.8 °F 42.6 °F 30.00 in SSE 5.0 mph 5.0 mph 79 % 0.00 in
06:59 43.7 °F 39.8 °F 29.99 in SSE 1.2 mph 0.6 mph 86 % 0.00 in
07:00 48.8 °F 42.9 °F 30.00 in SSE 3.0 mph 6.0 mph 80 % 0.00 in
07:04 43.9 °F 40.6 °F 30.00 in North 3.5 mph 1.1 mph 88 % 0.00 in
07:05 48.8 °F 42.9 °F 29.99 in SSE 3.0 mph 6.0 mph 80 % 0.00 in
07:09 44.0 °F 40.7 °F 30.00 in SSE 3.5 mph 0.8 mph 88 % 0.00 in
07:10 48.8 °F 42.9 °F 29.99 in SSE 3.0 mph 5.0 mph 80 % 0.00 in
07:14 44.0 °F 40.7 °F 30.00 in North 2.3 mph   88 % 0.00 in
07:15 48.6 °F 42.7 °F 29.99 in Calm   4.0 mph 80 % 0.00 in
07:19 44.1 °F 40.8 °F 30.00 in SSE 2.3 mph 0.2 mph 88 % 0.00 in
07:20 48.5 °F 42.6 °F 30.00 in SSE 1.0 mph 2.0 mph 80 % 0.00 in
07:24 44.3 °F 41.3 °F 30.00 in Calm     89 % 0.00 in
07:25 48.2 °F 42.3 °F 29.99 in SSE 1.0 mph 4.0 mph 80 % 0.00 in
07:29 44.6 °F 41.6 °F 30.00 in Calm     89 % 0.00 in
07:30 48.0 °F 42.4 °F 29.99 in SSE 1.0 mph 4.0 mph 81 % 0.00 in
07:34 44.5 °F 41.2 °F 30.00 in SSE 2.3 mph   88 % 0.00 in
07:35 47.8 °F 42.3 °F 29.99 in SSE 2.0 mph 4.0 mph 81 % 0.00 in
07:39 44.6 °F 41.6 °F 30.01 in North 2.3 mph 1.3 mph 89 % 0.00 in
07:40 47.5 °F 42.0 °F 29.99 in Calm   2.0 mph 81 % 0.00 in
07:44 44.8 °F 41.8 °F 30.01 in SSE 2.3 mph 2.2 mph 89 % 0.00 in
07:45 47.2 °F 41.7 °F 29.99 in SSE 2.0 mph 4.0 mph 81 % 0.00 in
07:49 45.2 °F 42.2 °F 30.01 in SSE 3.5 mph 1.4 mph 89 % 0.00 in
07:50 46.9 °F 41.7 °F 29.99 in SSE 1.0 mph 2.0 mph 82 % 0.00 in
07:54 45.5 °F 42.4 °F 30.01 in SSE 3.5 mph 1.2 mph 89 % 0.00 in
07:55 46.9 °F 42.0 °F 29.99 in Calm   1.0 mph 83 % 0.00 in
07:59 45.9 °F 42.8 °F 30.01 in SSE 3.5 mph 1.5 mph 89 % 0.00 in
08:00 46.7 °F 41.8 °F 29.99 in SSE 2.0 mph 4.0 mph 83 % 0.00 in
08:04 46.5 °F 43.4 °F 30.02 in SSE 2.3 mph 0.9 mph 89 % 0.00 in
08:05 46.4 °F 41.5 °F 29.98 in SSE 1.0 mph 4.0 mph 83 % 0.00 in
08:09 46.9 °F 43.5 °F 30.01 in SSE 4.6 mph 2.8 mph 88 % 0.00 in
08:10 46.0 °F 41.1 °F 29.99 in SSE 2.0 mph 4.0 mph 83 % 0.00 in
08:14 47.5 °F 43.8 °F 30.01 in SSE 3.5 mph 2.0 mph 87 % 0.00 in
08:15 45.8 °F 41.2 °F 29.99 in Calm   2.0 mph 84 % 0.00 in
08:19 48.2 °F 44.5 °F 30.01 in SSE 4.0 mph 1.5 mph 87 % 0.00 in
08:20 45.5 °F 40.9 °F 29.99 in SSE 3.0 mph 4.0 mph 84 % 0.00 in
08:24 48.8 °F 44.5 °F 30.01 in SSE 3.5 mph 0.9 mph 85 % 0.00 in
08:25 45.3 °F 40.7 °F 29.98 in Calm   4.0 mph 84 % 0.00 in
08:29 49.6 °F 45.0 °F 30.01 in SSE 3.5 mph 0.8 mph 84 % 0.00 in
08:30 45.0 °F 40.5 °F 29.98 in SSE 1.0 mph 2.0 mph 84 % 0.00 in
08:34 50.3 °F 45.0 °F 30.01 in SSE 4.6 mph 2.3 mph 82 % 0.00 in
08:35 44.8 °F 40.6 °F 29.98 in SSE 1.0 mph 2.0 mph 85 % 0.00 in
08:39 50.9 °F 44.9 °F 30.01 in SSE 7.0 mph 4.3 mph 80 % 0.00 in
08:40 44.5 °F 40.3 °F 29.98 in Calm     85 % 0.00 in
08:42 51.1 °F 45.1 °F 30.01 in SSE 4.6 mph 2.4 mph 80 % 0.00 in
08:45 44.4 °F 40.2 °F 29.99 in Calm   2.0 mph 85 % 0.00 in
08:50 44.2 °F 40.3 °F 29.99 in Calm   2.0 mph 86 % 0.00 in
08:55 44.0 °F 40.1 °F 29.99 in SSE 1.0 mph 2.0 mph 86 % 0.00 in
09:00 43.9 °F 40.0 °F 29.99 in Calm   2.0 mph 86 % 0.00 in
09:05 43.7 °F 40.1 °F 29.99 in SSE 1.0 mph 4.0 mph 87 % 0.00 in
09:10 43.9 °F 40.3 °F 30.00 in SSE 1.0 mph 5.0 mph 87 % 0.00 in
09:15 44.0 °F 40.7 °F 30.00 in Calm   4.0 mph 88 % 0.00 in
09:20 44.1 °F 40.8 °F 30.00 in SSE 1.0 mph 2.0 mph 88 % 0.00 in
09:25 44.2 °F 40.9 °F 30.00 in Calm   2.0 mph 88 % 0.00 in
09:30 44.4 °F 41.4 °F 30.00 in Calm     89 % 0.00 in
09:35 44.6 °F 41.6 °F 30.00 in Calm     89 % 0.00 in
09:40 44.5 °F 41.2 °F 30.01 in Calm   2.0 mph 88 % 0.00 in
09:45 44.6 °F 41.6 °F 30.01 in SSE 1.0 mph 2.0 mph 89 % 0.00 in
09:50 44.9 °F 41.9 °F 30.01 in SSE 2.0 mph 4.0 mph 89 % 0.00 in
09:55 45.3 °F 42.2 °F 30.01 in Calm   4.0 mph 89 % 0.00 in
10:00 45.6 °F 42.5 °F 30.01 in SSE 1.0 mph 4.0 mph 89 % 0.00 in
10:05 46.0 °F 42.9 °F 30.01 in SSE 1.0 mph 4.0 mph 89 % 0.00 in
10:10 46.6 °F 43.2 °F 30.01 in SSE 2.0 mph 5.0 mph 88 % 0.00 in
10:15 47.0 °F 43.3 °F 30.01 in SSE 1.0 mph 5.0 mph 87 % 0.00 in
10:20 47.6 °F 43.9 °F 30.01 in SSE 1.0 mph 6.0 mph 87 % 0.00 in
10:25 48.3 °F 44.3 °F 30.01 in SSE 2.0 mph 4.0 mph 86 % 0.00 in
10:30 49.0 °F 44.7 °F 30.01 in Calm   4.0 mph 85 % 0.00 in
10:35 49.8 °F 45.2 °F 30.01 in Calm   4.0 mph 84 % 0.00 in
10:40 50.5 °F 45.2 °F 30.01 in SSE 1.0 mph 5.0 mph 82 % 0.00 in
10:45 50.9 °F 44.9 °F 30.01 in SSE 3.0 mph 7.0 mph 80 % 0.00 in
10:50 51.4 °F 45.1 °F 30.01 in SSE 3.0 mph 5.0 mph 79 % 0.00 in
10:55 51.8 °F 45.2 °F 30.01 in SSE 2.0 mph 6.0 mph 78 % 0.00 in
11:00 52.3 °F 45.3 °F 30.00 in SSE 1.0 mph 6.0 mph 77 % 0.00 in
11:05 52.5 °F 45.2 °F 30.01 in SSE 3.0 mph 6.0 mph 76 % 0.00 in
11:10 52.7 °F 45.0 °F 30.01 in SSE 2.0 mph 8.0 mph 75 % 0.00 in
11:15 53.2 °F 45.5 °F 30.01 in SSE 1.0 mph 6.0 mph 75 % 0.00 in
11:20 53.6 °F 45.5 °F 30.01 in SSE 2.0 mph 6.0 mph 74 % 0.00 in
11:25 54.1 °F 45.6 °F 30.01 in SSE 2.0 mph 6.0 mph 73 % 0.00 in
11:30 54.7 °F 46.2 °F 30.01 in SSE 3.0 mph 6.0 mph 73 % 0.00 in
11:35 55.3 °F 46.4 °F 30.01 in SSE 3.0 mph 6.0 mph 72 % 0.00 in
11:40 55.7 °F 46.1 °F 30.01 in SSE 3.0 mph 5.0 mph 70 % 0.00 in
11:45 56.5 °F 46.8 °F 30.01 in SSE 3.0 mph 7.0 mph 70 % 0.00 in
11:50 57.0 °F 46.5 °F 30.01 in SSE 6.0 mph 7.0 mph 68 % 0.00 in
11:55 57.3 °F 46.4 °F 30.01 in SSE 3.0 mph 6.0 mph 67 % 0.00 in
12:00 57.6 °F 45.9 °F 30.01 in SSE 5.0 mph 9.0 mph 65 % 0.00 in
12:05 58.3 °F 46.6 °F 30.01 in SSE 3.0 mph 6.0 mph 65 % 0.00 in
12:10 59.4 °F 46.4 °F 30.02 in SSE 5.0 mph 9.0 mph 62 % 0.00 in
12:15 60.0 °F 45.2 °F 30.02 in SSE 6.0 mph 9.0 mph 58 % 0.00 in
12:20 60.5 °F 44.2 °F 30.02 in SSE 7.0 mph 13.0 mph 55 % 0.00 in
12:25 60.7 °F 43.9 °F 30.02 in SSE 6.0 mph 8.0 mph 54 % 0.00 in
12:30 61.3 °F 44.5 °F 30.02 in SSE 7.0 mph 9.0 mph 54 % 0.00 in
12:35 61.8 °F 44.0 °F 30.02 in SSE 5.0 mph 9.0 mph 52 % 0.00 in
12:40 61.6 °F 43.3 °F 30.02 in SSE 7.0 mph 9.0 mph 51 % 0.00 in
12:45 61.5 °F 43.7 °F 30.02 in SSE 3.0 mph 9.0 mph 52 % 0.00 in
12:50 61.9 °F 43.6 °F 30.02 in SSE 6.0 mph 10.0 mph 51 % 0.00 in
12:55 62.4 °F 43.5 °F 30.03 in SSE 6.0 mph 11.0 mph 50 % 0.00 in
13:00 62.6 °F 43.2 °F 30.03 in SSE 3.0 mph 10.0 mph 49 % 0.00 in
13:05 62.4 °F 43.5 °F 30.03 in SSE 8.0 mph 11.0 mph 50 % 0.00 in
13:10 62.4 °F 43.5 °F 30.03 in South 8.0 mph 10.0 mph 50 % 0.00 in
13:15 62.7 °F 43.8 °F 30.02 in South 6.0 mph 10.0 mph 50 % 0.00 in
13:20 64.0 °F 43.9 °F 30.02 in South 8.0 mph 13.0 mph 48 % 0.00 in
13:25 64.5 °F 42.7 °F 30.02 in South 6.0 mph 11.0 mph 45 % 0.00 in
13:30 64.4 °F 42.6 °F 30.02 in SSE 10.0 mph 14.0 mph 45 % 0.00 in
13:34 68.3 °F 43.0 °F 29.98 in SE 11.5 mph 8.8 mph 40 % 0.00 in
13:35 64.2 °F 41.8 °F 30.02 in South 8.0 mph 14.0 mph 44 % 0.00 in
13:39 68.9 °F 42.9 °F 29.98 in SW 10.4 mph 6.5 mph 39 % 0.00 in
13:40 64.2 °F 41.8 °F 30.02 in SSW 8.0 mph 13.0 mph 44 % 0.00 in
13:44 69.1 °F 41.7 °F 29.98 in SW 9.2 mph 7.7 mph 37 % 0.00 in
13:45 64.8 °F 42.4 °F 30.02 in SSW 8.0 mph 14.0 mph 44 % 0.00 in
13:49 69.6 °F 42.9 °F 29.98 in South 10.4 mph 8.6 mph 38 % 0.00 in
13:50 64.8 °F 42.4 °F 30.02 in SSW 10.0 mph 14.0 mph 44 % 0.00 in
13:54 70.0 °F 43.2 °F 29.97 in SSE 6.9 mph 2.6 mph 38 % 0.00 in
13:55 64.9 °F 43.0 °F 30.02 in SSW 6.0 mph 15.0 mph 45 % 0.00 in
13:59 70.1 °F 42.6 °F 29.97 in South 16.1 mph 8.7 mph 37 % 0.00 in
14:00 65.0 °F 42.5 °F 30.02 in SSW 3.0 mph 15.0 mph 44 % 0.00 in
14:04 69.6 °F 42.2 °F 29.97 in SSW 12.7 mph 10.0 mph 37 % 0.00 in
14:05 65.2 °F 42.1 °F 30.02 in SSW 6.0 mph 10.0 mph 43 % 0.00 in
14:09 69.7 °F 42.3 °F 29.97 in South 9.2 mph 7.1 mph 37 % 0.00 in
14:10 65.2 °F 42.7 °F 30.01 in SSW 3.0 mph 12.0 mph 44 % 0.00 in
14:14 69.7 °F 41.5 °F 29.97 in SSW 10.0 mph 7.5 mph 36 % 0.00 in
14:15 66.3 °F 43.1 °F 30.01 in South 7.0 mph 13.0 mph 43 % 0.00 in
14:19 69.6 °F 42.2 °F 29.96 in SSW 10.4 mph 6.8 mph 37 % 0.00 in
14:20 66.7 °F 42.2 °F 30.01 in SSE 9.0 mph 15.0 mph 41 % 0.00 in
14:24 70.3 °F 42.8 °F 29.96 in South 9.2 mph 5.7 mph 37 % 0.00 in
14:25 66.2 °F 41.8 °F 30.01 in South 10.0 mph 15.0 mph 41 % 0.00 in
14:29 70.9 °F 42.6 °F 29.96 in SSW 13.8 mph 11.1 mph 36 % 0.00 in
14:30 66.2 °F 42.4 °F 30.00 in South 6.0 mph 11.0 mph 42 % 0.00 in
14:34 70.5 °F 43.0 °F 29.96 in SSW 11.5 mph 4.4 mph 37 % 0.00 in
14:35 65.9 °F 42.8 °F 30.00 in SSW 9.0 mph 15.0 mph 43 % 0.00 in
14:39 70.9 °F 43.3 °F 29.95 in SSW 6.9 mph 5.8 mph 37 % 0.00 in
14:40 66.4 °F 42.6 °F 30.00 in SSW 8.0 mph 16.0 mph 42 % 0.00 in
14:44 71.1 °F 42.0 °F 29.95 in South 11.5 mph 5.3 mph 35 % 0.00 in
14:45 66.8 °F 43.0 °F 30.00 in South 5.0 mph 10.0 mph 42 % 0.00 in
14:49 71.4 °F 43.0 °F 29.94 in South 9.0 mph 6.3 mph 36 % 0.00 in
14:50 67.1 °F 42.6 °F 30.00 in SSW 7.0 mph 12.0 mph 41 % 0.00 in
14:54 71.7 °F 43.3 °F 29.94 in SSW 3.5 mph 2.2 mph 36 % 0.00 in
14:55 67.7 °F 43.1 °F 30.00 in South 6.0 mph 12.0 mph 41 % 0.00 in
14:59 72.1 °F 42.9 °F 29.94 in SW 11.0 mph 7.7 mph 35 % 0.00 in
15:00 67.8 °F 41.3 °F 30.00 in SSE 7.0 mph 12.0 mph 38 % 0.00 in
15:04 71.3 °F 43.0 °F 29.94 in SSW 9.2 mph 7.1 mph 36 % 0.00 in
15:05 67.2 °F 42.0 °F 30.00 in South 3.0 mph 13.0 mph 40 % 0.00 in
15:09 71.2 °F 42.9 °F 29.94 in SSW 5.8 mph 3.1 mph 36 % 0.00 in
15:10 67.6 °F 42.4 °F 29.99 in South 10.0 mph 14.0 mph 40 % 0.00 in
15:14 71.5 °F 42.4 °F 29.94 in SSW 15.0 mph 7.0 mph 35 % 0.00 in
15:15 67.8 °F 41.9 °F 29.99 in South 9.0 mph 15.0 mph 39 % 0.00 in
15:19 71.3 °F 43.0 °F 29.94 in SSW 9.2 mph 6.9 mph 36 % 0.00 in
15:20 67.5 °F 41.7 °F 29.99 in SSW 7.0 mph 10.0 mph 39 % 0.00 in
15:24 71.7 °F 42.6 °F 29.94 in SW 10.4 mph 7.7 mph 35 % 0.00 in
15:25 68.0 °F 42.8 °F 29.99 in SSW 9.0 mph 16.0 mph 40 % 0.00 in
15:29 71.6 °F 42.5 °F 29.94 in SSW 11.5 mph 7.2 mph 35 % 0.00 in
15:30 68.2 °F 42.3 °F 29.99 in SSW 8.0 mph 13.0 mph 39 % 0.00 in
15:34 71.8 °F 42.7 °F 29.93 in South 8.0 mph 4.3 mph 35 % 0.00 in
15:35 68.0 °F 42.1 °F 29.99 in SSW 2.0 mph 13.0 mph 39 % 0.00 in
15:39 71.9 °F 43.5 °F 29.93 in South 11.5 mph 7.1 mph 36 % 0.00 in
15:40 68.5 °F 42.6 °F 29.98 in SSW 9.0 mph 13.0 mph 39 % 0.00 in
15:44 72.3 °F 43.8 °F 29.93 in South 9.2 mph 4.2 mph 36 % 0.00 in
15:45 69.1 °F 41.7 °F 29.98 in SSW 9.0 mph 14.0 mph 37 % 0.00 in
15:49 72.5 °F 42.5 °F 29.93 in South 10.4 mph 6.3 mph 34 % 0.00 in
15:50 69.1 °F 42.4 °F 29.98 in SW 5.0 mph 11.0 mph 38 % 0.00 in
15:54 72.8 °F 43.5 °F 29.93 in SSE 12.7 mph 5.5 mph 35 % 0.00 in
15:55 69.7 °F 43.6 °F 29.98 in SSW 6.0 mph 12.0 mph 39 % 0.00 in
15:59 73.6 °F 43.5 °F 29.93 in South 6.0 mph 4.3 mph 34 % 0.00 in
16:00 70.1 °F 42.6 °F 29.98 in South 8.0 mph 10.0 mph 37 % 0.00 in
16:04 73.7 °F 42.8 °F 29.93 in South 12.7 mph 6.9 mph 33 % 0.00 in
16:05 70.1 °F 42.6 °F 29.98 in South 7.0 mph 16.0 mph 37 % 0.00 in
16:09 72.9 °F 42.9 °F 29.92 in South 5.0 mph 4.4 mph 34 % 0.00 in
16:10 69.5 °F 42.1 °F 29.97 in SSW 7.0 mph 13.0 mph 37 % 0.00 in
16:14 73.0 °F 43.0 °F 29.92 in South 18.4 mph 8.1 mph 34 % 0.00 in
16:19 72.7 °F 41.9 °F 29.93 in SSW 12.7 mph 8.6 mph 33 % 0.00 in
16:24 72.4 °F 40.9 °F 29.92 in SW 13.0 mph 8.2 mph 32 % 0.00 in
16:29 72.6 °F 41.0 °F 29.92 in SSW 12.7 mph 5.8 mph 32 % 0.00 in
16:34 72.9 °F 42.1 °F 29.92 in SSW 5.8 mph 3.8 mph 33 % 0.00 in
16:39 73.5 °F 41.8 °F 29.92 in SSE 11.5 mph 8.5 mph 32 % 0.00 in
16:44 73.6 °F 41.1 °F 29.92 in SSW 10.4 mph 4.8 mph 31 % 0.00 in
16:49 73.7 °F 40.3 °F 29.92 in SW 8.1 mph 4.6 mph 30 % 0.00 in
16:54 73.5 °F 41.0 °F 29.92 in WSW 10.4 mph 8.8 mph 31 % 0.00 in
16:59 73.1 °F 40.7 °F 29.92 in SW 10.4 mph 6.9 mph 31 % 0.00 in
17:04 72.9 °F 40.5 °F 29.92 in SSW 17.3 mph 11.2 mph 31 % 0.00 in
17:09 72.7 °F 40.3 °F 29.92 in SW 9.2 mph 4.9 mph 31 % 0.00 in
17:14 73.1 °F 40.7 °F 29.91 in WSW 11.5 mph 8.5 mph 31 % 0.00 in
17:19 73.0 °F 39.7 °F 29.91 in SSW 10.4 mph 7.5 mph 30 % 0.00 in
17:24 73.1 °F 40.7 °F 29.92 in SSE 10.0 mph 7.4 mph 31 % 0.00 in
17:29 73.0 °F 40.6 °F 29.92 in SSW 9.2 mph 8.2 mph 31 % 0.00 in
17:34 72.9 °F 40.5 °F 29.91 in SSW 9.2 mph 6.1 mph 31 % 0.00 in
17:39 72.9 °F 41.3 °F 29.91 in SSW 8.1 mph 5.6 mph 32 % 0.00 in
17:44 73.2 °F 40.7 °F 29.91 in SSW 9.2 mph 5.4 mph 31 % 0.00 in
17:49 72.9 °F 40.5 °F 29.91 in SSW 9.2 mph 6.9 mph 31 % 0.00 in
17:54 73.0 °F 41.4 °F 29.91 in SSW 9.0 mph 6.3 mph 32 % 0.00 in
17:59 73.0 °F 40.6 °F 29.91 in SSW 11.5 mph 6.9 mph 31 % 0.00 in
18:04 72.8 °F 40.4 °F 29.91 in SSW 10.4 mph 6.6 mph 31 % 0.00 in
18:09 72.6 °F 40.2 °F 29.92 in SSW 11.5 mph 5.5 mph 31 % 0.00 in
18:14 72.5 °F 41.0 °F 29.91 in South 11.5 mph 7.3 mph 32 % 0.00 in
18:19 72.6 °F 41.0 °F 29.91 in South 9.2 mph 6.3 mph 32 % 0.00 in
18:24 72.6 °F 41.0 °F 29.92 in SSW 11.5 mph 5.0 mph 32 % 0.00 in
18:29 72.6 °F 41.0 °F 29.92 in SSW 11.5 mph 10.4 mph 32 % 0.00 in
18:34 72.3 °F 40.8 °F 29.92 in North 10.4 mph 7.6 mph 32 % 0.00 in
18:39 72.1 °F 40.6 °F 29.92 in SSW 11.5 mph 5.5 mph 32 % 0.00 in
18:44 72.1 °F 40.6 °F 29.92 in SW 12.7 mph 7.0 mph 32 % 0.00 in
18:49 71.8 °F 40.3 °F 29.93 in SW 11.5 mph 6.6 mph 32 % 0.00 in
18:54 71.6 °F 40.2 °F 29.93 in SSW 8.1 mph 4.9 mph 32 % 0.00 in
18:56 71.6 °F 40.2 °F 29.93 in SSW 11.0 mph 8.2 mph 32 % 0.00 in
19:04 71.2 °F 39.8 °F 29.93 in SSW 12.7 mph 7.6 mph 32 % 0.00 in
19:09 71.1 °F 40.5 °F 29.93 in SSW 12.0 mph 8.5 mph 33 % 0.00 in
19:15 72.8 °F 40.4 °F 29.92 in SW 6.0 mph 13.0 mph 31 % 0.00 in
19:19 69.7 °F 44.3 °F 29.94 in South 11.5 mph 5.9 mph 40 % 0.00 in
19:24 69.0 °F 44.3 °F 29.94 in South 16.1 mph 7.2 mph 41 % 0.00 in
19:29 68.4 °F 44.4 °F 29.94 in North 12.7 mph 7.3 mph 42 % 0.00 in
19:34 67.8 °F 44.5 °F 29.95 in South 17.3 mph 7.2 mph 43 % 0.00 in
19:39 67.2 °F 45.1 °F 29.95 in South 15.0 mph 8.1 mph 45 % 0.00 in
19:44 66.4 °F 45.0 °F 29.95 in South 19.6 mph 9.3 mph 46 % 0.00 in
19:49 65.9 °F 45.1 °F 29.95 in SSE 10.4 mph 8.3 mph 47 % 0.00 in
19:54 65.5 °F 45.3 °F 29.96 in South 10.4 mph 5.8 mph 48 % 0.00 in
19:59 65.1 °F 44.9 °F 29.96 in South 11.5 mph 4.3 mph 48 % 0.00 in
20:04 64.7 °F 45.1 °F 29.96 in South 13.8 mph 5.9 mph 49 % 0.00 in
20:09 64.2 °F 45.2 °F 29.96 in South 12.7 mph 9.2 mph 50 % 0.00 in
20:14 63.7 °F 45.2 °F 29.96 in SSE 16.1 mph 8.9 mph 51 % 0.00 in
20:19 63.1 °F 44.7 °F 29.97 in South 13.8 mph 8.3 mph 51 % 0.00 in
20:24 62.6 °F 44.7 °F 29.97 in South 13.8 mph 8.3 mph 52 % 0.00 in
20:29 62.2 °F 44.9 °F 29.97 in South 12.0 mph 7.2 mph 53 % 0.00 in
20:34 61.8 °F 44.5 °F 29.98 in South 10.0 mph 7.5 mph 53 % 0.00 in
20:39 61.5 °F 44.7 °F 29.98 in South 10.4 mph 4.5 mph 54 % 0.00 in
20:44 61.1 °F 44.8 °F 29.98 in South 11.0 mph 7.7 mph 55 % 0.00 in
20:49 60.7 °F 44.4 °F 29.99 in SSW 15.0 mph 7.2 mph 55 % 0.00 in
20:54 60.3 °F 45.0 °F 29.99 in South 9.2 mph 7.0 mph 57 % 0.00 in
20:59 59.9 °F 45.1 °F 30.00 in South 11.5 mph 7.7 mph 58 % 0.00 in
21:04 59.5 °F 45.2 °F 30.00 in South 9.2 mph 5.3 mph 59 % 0.00 in
21:09 59.2 °F 45.3 °F 30.00 in South 8.0 mph 6.3 mph 60 % 0.00 in
21:14 58.9 °F 45.5 °F 30.00 in South 12.7 mph 7.5 mph 61 % 0.00 in
21:19 58.6 °F 45.6 °F 30.00 in South 9.2 mph 4.5 mph 62 % 0.00 in
21:24 58.3 °F 45.8 °F 30.00 in South 11.5 mph 5.8 mph 63 % 0.00 in
21:29 58.0 °F 45.9 °F 30.01 in South 9.2 mph 4.2 mph 64 % 0.00 in
21:34 57.7 °F 45.6 °F 30.01 in South 9.2 mph 5.8 mph 64 % 0.00 in
21:39 57.5 °F 45.8 °F 30.01 in SSW 12.7 mph 8.2 mph 65 % 0.00 in
21:44 57.3 °F 45.6 °F 30.01 in South 10.4 mph 3.8 mph 65 % 0.00 in
21:49 57.0 °F 45.7 °F 30.02 in South 10.4 mph 6.9 mph 66 % 0.00 in
21:54 56.8 °F 46.0 °F 30.02 in South 9.2 mph 6.2 mph 67 % 0.00 in
21:59 56.5 °F 45.7 °F 30.02 in South 9.2 mph 6.2 mph 67 % 0.00 in
22:04 56.3 °F 45.9 °F 30.02 in South 8.1 mph 6.2 mph 68 % 0.00 in
22:09 56.0 °F 45.6 °F 30.02 in South 8.1 mph 3.9 mph 68 % 0.00 in
22:14 55.7 °F 45.7 °F 30.02 in South 8.0 mph 6.6 mph 69 % 0.00 in
22:19 55.3 °F 45.7 °F 30.02 in South 9.2 mph 6.8 mph 70 % 0.00 in
22:24 55.2 °F 45.6 °F 30.02 in South 11.5 mph 5.0 mph 70 % 0.00 in
22:29 55.0 °F 45.8 °F 30.02 in South 10.4 mph 4.4 mph 71 % 0.00 in
22:34 55.0 °F 45.8 °F 30.02 in South 8.1 mph 6.0 mph 71 % 0.00 in
22:39 54.9 °F 46.0 °F 30.02 in South 8.1 mph 4.7 mph 72 % 0.00 in
22:44 54.6 °F 45.8 °F 30.03 in South 9.2 mph 6.8 mph 72 % 0.00 in
22:49 54.4 °F 45.9 °F 30.03 in North 4.6 mph 4.9 mph 73 % 0.00 in
22:54 54.3 °F 45.8 °F 30.02 in South 10.4 mph 5.2 mph 73 % 0.00 in
22:59 54.1 °F 46.0 °F 30.02 in South 8.1 mph 5.3 mph 74 % 0.00 in
23:04 54.0 °F 45.9 °F 30.02 in South 6.9 mph 5.4 mph 74 % 0.00 in
23:09 53.9 °F 46.2 °F 30.03 in South 8.1 mph 4.9 mph 75 % 0.00 in
23:14 53.6 °F 45.9 °F 30.03 in South 8.1 mph 5.8 mph 75 % 0.00 in
23:19 53.4 °F 46.0 °F 30.03 in South 8.1 mph 3.9 mph 76 % 0.00 in
23:24 53.3 °F 46.3 °F 30.03 in South 8.1 mph 4.9 mph 77 % 0.00 in
23:29 53.1 °F 46.4 °F 30.03 in South 8.1 mph 5.9 mph 78 % 0.00 in
23:34 52.9 °F 46.2 °F 30.02 in North 8.0 mph 4.7 mph 78 % 0.00 in
23:39 52.9 °F 46.2 °F 30.02 in North 6.0 mph 4.3 mph 78 % 0.00 in
23:44 52.6 °F 46.3 °F 30.02 in South 6.9 mph 2.7 mph 79 % 0.00 in
23:49 52.5 °F 46.2 °F 30.02 in North 9.2 mph 5.7 mph 79 % 0.00 in
23:54 52.3 °F 46.3 °F 30.02 in South 6.9 mph 5.8 mph 80 % 0.00 in
23:59 52.2 °F 46.2 °F 30.03 in South 6.0 mph 2.9 mph 80 % 0.00 in
Ararat Weather
Compliments of Weather Underground - 3.25 mb
Click here to send mail.


ABOUT

Live weather data from Ararat, Victoria, Australia, 3377
Data uploaded from Cumulus every 5 minutes to Weather Underground.
This site then downloads the raw data for formatting and display.
Metric and imperial data can be displayed. Graphs and historical data available.
Includes Sun and Moon times and rain image live from BOM.

Check out Ararat Weather on Facebook, Twitter and Google +

Help support ongoing costs by checking out the ads





Follow @AraratWeather